createdAt,value
2023-05-16T00:01:49.852Z,0.60
2023-05-16T00:04:18.991Z,0.30
2023-05-16T00:06:47.577Z,0.60
2023-05-16T00:09:15.971Z,0.80
2023-05-16T00:11:44.989Z,0.60
2023-05-16T00:14:13.542Z,0.50
2023-05-16T00:16:42.324Z,0.52
2023-05-16T00:19:11.474Z,0.50
2023-05-16T00:21:39.717Z,0.50
2023-05-16T00:24:08.354Z,0.60
2023-05-16T00:26:36.600Z,0.50
2023-05-16T00:29:04.802Z,0.40
2023-05-16T00:31:33.220Z,0.50
2023-05-16T00:34:01.608Z,0.55
2023-05-16T00:36:31.022Z,0.50
2023-05-16T00:38:59.393Z,0.52
2023-05-16T00:41:28.623Z,0.65
2023-05-16T00:43:56.882Z,0.60
2023-05-16T00:46:25.088Z,0.55
2023-05-16T00:48:53.715Z,0.60
2023-05-16T00:51:22.063Z,0.60
2023-05-16T00:53:50.507Z,0.63
2023-05-16T00:56:20.232Z,0.45
2023-05-16T00:58:50.209Z,0.63
2023-05-16T01:01:23.824Z,0.45
2023-05-16T01:03:55.004Z,0.80
2023-05-16T01:06:23.347Z,0.52
2023-05-16T01:08:51.680Z,0.65
2023-05-16T01:11:23.565Z,0.75
2023-05-16T01:14:13.417Z,0.60
2023-05-16T01:17:07.319Z,0.90
2023-05-16T01:22:51.528Z,0.52
2023-05-16T01:25:45.863Z,0.98
2023-05-16T01:28:18.180Z,0.60
2023-05-16T01:30:46.574Z,0.50
2023-05-16T01:33:14.803Z,0.50
2023-05-16T01:35:56.195Z,0.50
2023-05-16T01:38:36.715Z,0.75
2023-05-16T01:41:28.381Z,0.73
2023-05-16T01:44:03.392Z,0.68
2023-05-16T01:46:37.355Z,0.55
2023-05-16T01:49:22.665Z,0.85
2023-05-16T01:51:55.889Z,0.68
2023-05-16T01:54:29.174Z,0.70
2023-05-16T01:56:59.827Z,0.70
2023-05-16T01:59:28.549Z,0.70
2023-05-16T02:02:00.748Z,0.52
2023-05-16T02:04:29.108Z,0.70
2023-05-16T02:06:58.186Z,0.75
2023-05-16T02:09:26.520Z,0.80
2023-05-16T02:11:55.029Z,0.70
2023-05-16T02:14:23.334Z,0.90
2023-05-16T02:16:52.348Z,0.70
2023-05-16T02:19:20.974Z,0.82
2023-05-16T02:21:49.890Z,0.60
2023-05-16T02:24:18.241Z,0.95
2023-05-16T02:26:46.567Z,1.00
2023-05-16T02:29:16.593Z,1.00
2023-05-16T02:31:44.918Z,0.90
2023-05-16T02:34:14.085Z,1.00
2023-05-16T02:36:43.868Z,0.85
2023-05-16T02:39:12.143Z,0.68
2023-05-16T02:41:40.454Z,0.73
2023-05-16T02:44:10.190Z,0.70
2023-05-16T02:46:38.583Z,0.50
2023-05-16T02:49:06.922Z,1.00
2023-05-16T02:51:35.150Z,0.85
2023-05-16T02:54:03.556Z,0.68
2023-05-16T02:56:31.838Z,0.75
2023-05-16T02:59:01.448Z,0.60
2023-05-16T03:01:29.977Z,0.80
2023-05-16T03:03:59.951Z,0.60
2023-05-16T03:06:28.307Z,0.80
2023-05-16T03:08:56.564Z,0.63
2023-05-16T03:11:24.992Z,0.77
2023-05-16T03:13:53.217Z,0.70
2023-05-16T03:16:21.883Z,1.00
2023-05-16T03:18:50.349Z,0.75
2023-05-16T03:21:18.663Z,0.63
2023-05-16T03:23:46.836Z,0.82
2023-05-16T03:26:15.086Z,0.70
2023-05-16T03:28:43.329Z,1.00
2023-05-16T03:31:11.651Z,1.10
2023-05-16T03:33:40.037Z,0.75
2023-05-16T03:36:08.653Z,0.77
2023-05-16T03:38:37.293Z,1.10
2023-05-16T03:41:05.607Z,0.80
2023-05-16T03:43:33.828Z,0.90
2023-05-16T03:46:02.762Z,0.77
2023-05-16T03:48:31.243Z,1.00
2023-05-16T03:50:59.420Z,0.88
2023-05-16T03:53:27.829Z,0.90
2023-05-16T03:55:56.240Z,1.10
2023-05-16T03:58:24.512Z,0.70
2023-05-16T04:00:52.747Z,0.95
2023-05-16T04:03:28.194Z,0.90
2023-05-16T04:05:57.647Z,0.90
2023-05-16T04:08:26.225Z,0.88
2023-05-16T04:10:54.609Z,1.25
2023-05-16T04:13:23.078Z,0.75
2023-05-16T04:15:51.481Z,0.70
2023-05-16T04:18:19.740Z,0.90
2023-05-16T04:20:47.929Z,0.80
2023-05-16T04:23:16.152Z,0.98
2023-05-16T04:25:44.514Z,1.00
2023-05-16T04:28:12.801Z,1.10
2023-05-16T04:30:41.109Z,0.90
2023-05-16T04:33:09.388Z,0.80
2023-05-16T04:35:37.726Z,1.15
2023-05-16T04:38:06.463Z,1.10
2023-05-16T04:40:35.365Z,1.40
2023-05-16T04:43:03.629Z,1.20
2023-05-16T04:45:31.861Z,1.10
2023-05-16T04:51:03.260Z,1.00
2023-05-16T04:53:31.545Z,1.10
2023-05-16T04:56:00.403Z,1.27
2023-05-16T04:58:28.697Z,1.10
2023-05-16T05:00:57.026Z,1.20
2023-05-16T05:03:25.206Z,1.45
2023-05-16T05:05:53.398Z,1.40
2023-05-16T05:08:22.311Z,1.15
2023-05-16T05:10:50.498Z,1.50
2023-05-16T05:13:18.706Z,1.30
2023-05-16T05:15:46.949Z,1.30
2023-05-16T05:18:15.327Z,1.58
2023-05-16T05:20:43.942Z,1.48
2023-05-16T05:23:12.153Z,1.90
2023-05-16T05:25:40.909Z,2.10
2023-05-16T05:28:09.106Z,1.90
2023-05-16T05:30:37.296Z,1.40
2023-05-16T05:33:05.637Z,2.10
2023-05-16T05:35:33.920Z,1.77
2023-05-16T05:38:02.226Z,1.70
2023-05-16T05:40:30.403Z,1.90
2023-05-16T05:42:58.677Z,2.15
2023-05-16T05:45:27.309Z,1.85
2023-05-16T05:47:55.998Z,1.60
2023-05-16T05:50:24.342Z,1.85
2023-05-16T05:52:52.689Z,1.70
2023-05-16T05:55:21.039Z,1.60
2023-05-16T05:57:49.221Z,1.60
2023-05-16T06:00:17.567Z,1.65
2023-05-16T06:02:45.924Z,1.35
2023-05-16T06:05:14.320Z,1.60
2023-05-16T06:07:42.565Z,1.50
2023-05-16T06:10:11.033Z,1.95
2023-05-16T06:12:39.502Z,1.98
2023-05-16T06:15:08.502Z,1.92
2023-05-16T06:17:36.777Z,1.73
2023-05-16T06:20:05.700Z,1.80
2023-05-16T06:22:33.998Z,1.65
2023-05-16T06:25:02.343Z,1.42
2023-05-16T06:27:30.551Z,2.10
2023-05-16T06:29:58.782Z,1.73
2023-05-16T06:32:27.046Z,1.58
2023-05-16T06:34:55.380Z,2.10
2023-05-16T06:37:23.677Z,1.55
2023-05-16T06:39:52.145Z,2.10
2023-05-16T06:42:20.741Z,2.20
2023-05-16T06:44:51.320Z,3.15
2023-05-16T06:47:19.635Z,3.38
2023-05-16T06:49:48.166Z,3.83
2023-05-16T06:52:16.807Z,5.90
2023-05-16T06:54:48.244Z,9.90
2023-05-16T06:57:16.683Z,6.30
2023-05-16T06:59:44.941Z,3.70
2023-05-16T07:02:13.338Z,3.08
2023-05-16T07:04:41.833Z,4.10
2023-05-16T07:07:10.146Z,10.93
2023-05-16T07:09:38.388Z,2.78
2023-05-16T07:12:07.025Z,1.80
2023-05-16T07:14:35.371Z,2.10
2023-05-16T07:17:03.928Z,2.10
2023-05-16T07:19:32.576Z,2.20
2023-05-16T07:22:00.891Z,1.92
2023-05-16T07:24:29.508Z,2.40
2023-05-16T07:26:57.746Z,2.03
2023-05-16T07:29:26.319Z,2.38
2023-05-16T07:31:54.723Z,1.63
2023-05-16T07:34:23.283Z,1.92
2023-05-16T07:36:51.532Z,1.80
2023-05-16T07:39:19.799Z,3.80
2023-05-16T07:41:48.068Z,3.65
2023-05-16T07:44:16.480Z,7.10
2023-05-16T07:46:45.329Z,13.10
2023-05-16T07:49:13.782Z,13.50
2023-05-16T07:51:42.019Z,7.30
2023-05-16T07:54:10.276Z,3.55
2023-05-16T07:56:38.544Z,4.28
2023-05-16T07:59:07.033Z,2.28
2023-05-16T08:01:35.411Z,2.10
2023-05-16T08:04:03.820Z,2.35
2023-05-16T08:06:32.291Z,2.20
2023-05-16T08:09:00.565Z,2.20
2023-05-16T08:11:29.065Z,2.35
2023-05-16T08:13:57.366Z,2.60
2023-05-16T08:16:25.867Z,2.72
2023-05-16T08:18:54.236Z,2.63
2023-05-16T08:21:22.559Z,1.70
2023-05-16T08:23:51.294Z,1.85
2023-05-16T08:26:19.483Z,1.70
2023-05-16T08:28:47.956Z,1.75
2023-05-16T08:31:18.052Z,2.08
2023-05-16T08:33:46.385Z,2.47
2023-05-16T08:36:15.967Z,2.47
2023-05-16T08:38:44.191Z,2.35
2023-05-16T08:41:12.770Z,2.13
2023-05-16T08:43:41.116Z,2.08
2023-05-16T08:46:09.674Z,2.47
2023-05-16T08:48:41.763Z,2.72
2023-05-16T08:51:10.970Z,2.70
2023-05-16T08:53:54.812Z,2.63
2023-05-16T08:56:24.990Z,3.20
2023-05-16T08:58:55.317Z,2.90
2023-05-16T09:01:23.755Z,2.55
2023-05-16T09:03:53.484Z,3.13
2023-05-16T09:06:21.893Z,2.78
2023-05-16T09:08:50.183Z,3.13
2023-05-16T09:11:19.420Z,2.83
2023-05-16T09:13:48.730Z,2.63
2023-05-16T09:16:21.484Z,2.40
2023-05-16T09:18:59.122Z,2.58
2023-05-16T09:21:33.120Z,2.28
2023-05-16T09:24:05.860Z,3.08
2023-05-16T09:26:35.349Z,2.97
2023-05-16T09:29:13.303Z,4.13
2023-05-16T09:31:41.649Z,2.78
2023-05-16T09:34:13.500Z,2.80
2023-05-16T09:36:43.745Z,2.78
2023-05-16T09:39:16.701Z,3.42
2023-05-16T09:41:45.062Z,2.97
2023-05-16T09:44:13.608Z,2.63
2023-05-16T09:46:42.023Z,3.10
2023-05-16T09:49:14.210Z,3.00
2023-05-16T09:51:42.727Z,3.10
2023-05-16T09:54:11.058Z,2.65
2023-05-16T09:56:51.621Z,3.40
2023-05-16T09:59:19.909Z,3.13
2023-05-16T10:01:51.327Z,3.53
2023-05-16T10:04:19.834Z,3.10
2023-05-16T10:06:51.454Z,2.90
2023-05-16T10:09:21.311Z,3.55
2023-05-16T10:11:49.898Z,2.95
2023-05-16T10:14:19.447Z,5.00
2023-05-16T10:19:20.851Z,3.97
2023-05-16T10:21:54.834Z,3.55
2023-05-16T10:24:29.288Z,3.00
2023-05-16T10:26:57.915Z,3.22
2023-05-16T10:29:26.791Z,3.15
2023-05-16T10:31:55.755Z,2.83
2023-05-16T10:34:24.388Z,2.20
2023-05-16T10:36:54.089Z,2.10
2023-05-16T10:39:23.446Z,2.00
2023-05-16T10:41:52.171Z,2.58
2023-05-16T10:44:20.824Z,2.65
2023-05-16T10:46:49.126Z,2.60
2023-05-16T10:49:24.862Z,1.80
2023-05-16T10:52:08.912Z,2.13
2023-05-16T10:54:42.093Z,1.55
2023-05-16T10:57:24.264Z,1.75
2023-05-16T10:59:53.894Z,1.50
2023-05-16T11:02:30.358Z,1.98
2023-05-16T11:05:00.522Z,1.67
2023-05-16T11:07:36.944Z,1.17
2023-05-16T11:10:16.633Z,1.40
2023-05-16T11:12:48.199Z,1.88
2023-05-16T11:15:31.755Z,1.33
2023-05-16T11:18:06.715Z,1.50
2023-05-16T11:20:37.212Z,1.60
2023-05-16T11:23:17.513Z,1.77
2023-05-16T11:26:00.754Z,1.83
2023-05-16T11:28:29.200Z,2.30
2023-05-16T11:31:00.157Z,2.00
2023-05-16T11:33:31.184Z,1.90
2023-05-16T11:38:43.794Z,1.95
2023-05-16T11:41:12.917Z,2.40
2023-05-16T11:43:46.360Z,1.80
2023-05-16T11:46:16.485Z,1.95
2023-05-16T11:48:46.606Z,2.65
2023-05-16T11:51:19.008Z,1.70
2023-05-16T11:53:50.895Z,1.75
2023-05-16T11:56:21.702Z,2.03
2023-05-16T11:58:50.861Z,2.30
2023-05-16T12:01:19.312Z,2.45
2023-05-16T12:03:58.442Z,2.08
2023-05-16T12:06:27.319Z,2.22
2023-05-16T12:08:55.878Z,2.17
2023-05-16T12:11:24.728Z,2.05
2023-05-16T12:13:53.949Z,2.13
2023-05-16T12:16:23.421Z,1.92
2023-05-16T12:18:51.867Z,2.00
2023-05-16T12:21:20.404Z,2.00
2023-05-16T12:23:48.629Z,2.03
2023-05-16T12:26:23.304Z,2.33
2023-05-16T12:28:57.270Z,1.70
2023-05-16T12:31:31.805Z,2.00
2023-05-16T12:34:01.297Z,1.80
2023-05-16T12:36:36.987Z,2.10
2023-05-16T12:39:05.347Z,1.90
2023-05-16T12:41:41.374Z,1.95
2023-05-16T12:44:17.008Z,1.60
2023-05-16T12:46:47.426Z,1.58
2023-05-16T12:49:16.072Z,1.70
2023-05-16T12:51:53.202Z,1.67
2023-05-16T12:54:23.244Z,2.05
2023-05-16T12:56:51.751Z,2.40
2023-05-16T12:59:20.423Z,2.10
2023-05-16T13:01:48.992Z,1.77
2023-05-16T13:04:20.280Z,1.60
2023-05-16T13:06:59.143Z,1.60
2023-05-16T13:09:32.107Z,2.03
2023-05-16T13:14:31.698Z,1.40
2023-05-16T13:16:59.981Z,1.50
2023-05-16T13:19:28.327Z,1.80
2023-05-16T13:21:57.196Z,1.38
2023-05-16T13:24:25.480Z,1.42
2023-05-16T13:26:53.884Z,1.30
2023-05-16T13:29:22.153Z,1.98
2023-05-16T13:31:50.500Z,2.22
2023-05-16T13:34:18.964Z,1.05
2023-05-16T13:36:54.394Z,1.20
2023-05-16T13:39:23.311Z,1.10
2023-05-16T13:41:52.433Z,0.85
2023-05-16T13:44:22.523Z,1.08
2023-05-16T13:46:51.066Z,1.10
2023-05-16T13:49:19.418Z,1.15
2023-05-16T13:51:48.109Z,1.23
2023-05-16T13:54:17.212Z,1.20
2023-05-16T13:56:45.957Z,1.10
2023-05-16T13:59:18.552Z,1.00
2023-05-16T14:01:56.479Z,1.08
2023-05-16T14:04:26.462Z,1.10
2023-05-16T14:06:56.369Z,2.05
2023-05-16T14:09:24.844Z,1.52
2023-05-16T14:11:53.152Z,1.20
2023-05-16T14:14:22.501Z,1.17
2023-05-16T14:16:50.888Z,1.23
2023-05-16T14:19:19.697Z,0.85
2023-05-16T14:21:48.151Z,1.08
2023-05-16T14:24:16.562Z,0.90
2023-05-16T14:26:45.056Z,0.80
2023-05-16T14:29:13.615Z,0.90
2023-05-16T14:31:41.966Z,0.70
2023-05-16T14:34:10.223Z,0.88
2023-05-16T14:36:38.522Z,1.17
2023-05-16T14:39:06.791Z,1.00
2023-05-16T14:41:35.195Z,0.93
2023-05-16T14:44:03.519Z,0.75
2023-05-16T14:46:31.874Z,0.80
2023-05-16T14:49:00.425Z,1.02
2023-05-16T14:51:30.786Z,1.08
2023-05-16T14:53:59.136Z,0.70
2023-05-16T14:56:28.177Z,0.50
2023-05-16T14:58:56.468Z,0.50
2023-05-16T15:01:24.831Z,0.57
2023-05-16T15:03:56.049Z,0.60
2023-05-16T15:06:27.955Z,1.00
2023-05-16T15:08:56.536Z,1.00
2023-05-16T15:11:24.766Z,0.73
2023-05-16T15:13:54.146Z,0.80
2023-05-16T15:16:22.564Z,0.80
2023-05-16T15:18:50.866Z,1.00
2023-05-16T15:21:19.783Z,1.60
2023-05-16T15:23:50.050Z,2.25
2023-05-16T15:26:19.045Z,1.50
2023-05-16T15:28:47.347Z,1.60
2023-05-16T15:31:15.761Z,1.92
2023-05-16T15:33:46.740Z,2.05
2023-05-16T15:36:17.219Z,1.73
2023-05-16T15:38:45.836Z,2.13
2023-05-16T15:41:31.333Z,1.60
2023-05-16T15:44:04.222Z,1.33
2023-05-16T15:46:33.338Z,1.20
2023-05-16T15:49:01.785Z,1.35
2023-05-16T15:51:30.084Z,1.65
2023-05-16T15:53:58.342Z,1.92
2023-05-16T15:56:26.666Z,1.63
2023-05-16T15:58:56.403Z,1.65
2023-05-16T16:01:24.724Z,2.35
2023-05-16T16:03:53.237Z,1.50
2023-05-16T16:06:21.915Z,1.65
2023-05-16T16:08:51.098Z,1.20
2023-05-16T16:11:23.209Z,1.40
2023-05-16T16:13:51.971Z,1.38
2023-05-16T16:16:20.395Z,1.35
2023-05-16T16:18:49.663Z,1.30
2023-05-16T16:21:18.286Z,1.05
2023-05-16T16:23:46.801Z,1.30
2023-05-16T16:26:15.059Z,1.10
2023-05-16T16:28:43.383Z,1.50
2023-05-16T16:31:12.922Z,1.30
2023-05-16T16:33:42.457Z,1.35
2023-05-16T16:36:11.081Z,1.60
2023-05-16T16:38:39.388Z,1.92
2023-05-16T16:41:07.763Z,1.30
2023-05-16T16:43:37.217Z,1.65
2023-05-16T16:46:06.402Z,1.50
2023-05-16T16:48:35.165Z,1.65
2023-05-16T16:51:03.663Z,1.50
2023-05-16T16:53:32.468Z,1.23
2023-05-16T16:56:00.897Z,1.20
2023-05-16T16:58:29.369Z,1.17
2023-05-16T17:00:57.710Z,1.17
2023-05-16T17:03:26.367Z,1.10
2023-05-16T17:05:54.731Z,1.67
2023-05-16T17:08:23.030Z,1.40
2023-05-16T17:10:51.610Z,1.50
2023-05-16T17:13:19.986Z,2.10
2023-05-16T17:15:48.325Z,1.50
2023-05-16T17:18:16.721Z,1.13
2023-05-16T17:20:44.991Z,1.20
2023-05-16T17:23:13.258Z,1.20
2023-05-16T17:25:42.187Z,1.10
2023-05-16T17:28:10.458Z,1.48
2023-05-16T17:30:38.722Z,1.17
2023-05-16T17:33:08.190Z,1.17
2023-05-16T17:35:36.861Z,1.25
2023-05-16T17:38:05.240Z,1.30
2023-05-16T17:40:33.554Z,1.65
2023-05-16T17:43:01.968Z,1.02
2023-05-16T17:45:31.197Z,1.17
2023-05-16T17:47:59.675Z,1.38
2023-05-16T17:50:30.036Z,1.50
2023-05-16T17:52:58.918Z,1.08
2023-05-16T17:55:27.539Z,1.25
2023-05-16T17:57:56.057Z,1.25
2023-05-16T18:00:24.533Z,1.85
2023-05-16T18:02:53.392Z,1.50
2023-05-16T18:05:22.310Z,1.45
2023-05-16T18:07:51.791Z,1.40
2023-05-16T18:10:20.048Z,1.45
2023-05-16T18:12:48.480Z,1.42
2023-05-16T18:15:17.022Z,1.30
2023-05-16T18:17:45.990Z,1.70
2023-05-16T18:20:14.559Z,1.75
2023-05-16T18:22:44.302Z,1.88
2023-05-16T18:25:12.700Z,3.22
2023-05-16T18:27:41.543Z,2.30
2023-05-16T18:30:10.803Z,1.50
2023-05-16T18:32:39.391Z,1.70
2023-05-16T18:35:08.134Z,1.73
2023-05-16T18:37:36.734Z,1.40
2023-05-16T18:40:05.810Z,1.23
2023-05-16T18:42:34.043Z,1.92
2023-05-16T18:45:02.306Z,1.10
2023-05-16T18:47:31.827Z,1.17
2023-05-16T18:50:00.172Z,1.35
2023-05-16T18:52:28.541Z,0.98
2023-05-16T18:54:56.850Z,1.55
2023-05-16T18:57:25.096Z,1.08
2023-05-16T18:59:53.747Z,2.33
2023-05-16T19:02:30.269Z,1.73
2023-05-16T19:05:02.822Z,2.22
2023-05-16T19:07:31.243Z,2.45
2023-05-16T19:10:01.025Z,1.10
2023-05-16T19:12:31.856Z,0.80
2023-05-16T19:15:00.617Z,1.25
2023-05-16T19:17:29.039Z,1.02
2023-05-16T19:19:58.175Z,1.27
2023-05-16T19:22:26.560Z,1.02
2023-05-16T19:24:54.875Z,1.00
2023-05-16T19:27:23.141Z,0.85
2023-05-16T19:29:51.479Z,1.00
2023-05-16T19:32:19.741Z,0.93
2023-05-16T19:34:48.159Z,1.00
2023-05-16T19:37:16.476Z,0.90
2023-05-16T19:39:44.748Z,0.98
2023-05-16T19:42:12.952Z,0.90
2023-05-16T19:44:42.900Z,1.00
2023-05-16T19:47:11.510Z,1.10
2023-05-16T19:49:39.849Z,0.93
2023-05-16T19:52:09.223Z,1.35
2023-05-16T19:54:37.488Z,1.17
2023-05-16T19:57:06.169Z,0.88
2023-05-16T19:59:37.380Z,1.00
2023-05-16T20:02:05.750Z,0.80
2023-05-16T20:04:34.112Z,1.23
2023-05-16T20:07:02.532Z,0.82
2023-05-16T20:09:31.253Z,1.20
2023-05-16T20:11:59.955Z,0.90
2023-05-16T20:14:29.534Z,1.23
2023-05-16T20:16:58.709Z,0.95
2023-05-16T20:19:27.169Z,1.25
2023-05-16T20:21:56.022Z,1.40
2023-05-16T20:24:24.402Z,1.58
2023-05-16T20:26:52.636Z,1.35
2023-05-16T20:29:20.918Z,1.92
2023-05-16T20:31:49.436Z,1.52
2023-05-16T20:34:17.745Z,1.55
2023-05-16T20:36:45.977Z,1.95
2023-05-16T20:39:14.199Z,2.20
2023-05-16T20:41:42.450Z,2.50
2023-05-16T20:44:10.942Z,3.00
2023-05-16T20:46:40.572Z,3.83
2023-05-16T20:49:09.053Z,3.92
2023-05-16T20:51:37.411Z,4.13
2023-05-16T20:54:05.775Z,3.58
2023-05-16T20:56:34.110Z,2.95
2023-05-16T20:59:02.330Z,3.55
2023-05-16T21:01:30.713Z,4.75
2023-05-16T21:03:59.105Z,3.63
2023-05-16T21:06:27.415Z,4.05
2023-05-16T21:08:56.061Z,3.40
2023-05-16T21:11:24.316Z,3.00
2023-05-16T21:13:52.565Z,3.13
2023-05-16T21:16:21.110Z,2.75
2023-05-16T21:18:49.507Z,2.85
2023-05-16T21:21:17.945Z,2.72
2023-05-16T21:23:46.305Z,3.55
2023-05-16T21:26:14.554Z,4.35
2023-05-16T21:28:54.475Z,3.70
2023-05-16T21:31:24.272Z,3.53
2023-05-16T21:33:52.827Z,3.28
2023-05-16T21:36:21.856Z,3.30
2023-05-16T21:38:50.275Z,3.60
2023-05-16T21:41:19.585Z,2.90
2023-05-16T21:43:47.927Z,3.20
2023-05-16T21:46:16.286Z,2.63
2023-05-16T21:48:44.594Z,3.13
2023-05-16T21:51:12.967Z,3.53
2023-05-16T21:53:41.208Z,3.40
2023-05-16T21:56:09.461Z,3.78
2023-05-16T21:58:38.647Z,3.38
2023-05-16T22:01:07.388Z,3.13
2023-05-16T22:03:35.773Z,3.50
2023-05-16T22:06:04.082Z,3.80
2023-05-16T22:08:32.371Z,3.80
2023-05-16T22:11:00.746Z,3.97
2023-05-16T22:13:29.001Z,3.85
2023-05-16T22:16:04.673Z,3.95
2023-05-16T22:18:34.117Z,3.65
2023-05-16T22:21:02.679Z,3.60
2023-05-16T22:23:31.160Z,3.70
2023-05-16T22:25:59.468Z,4.07
2023-05-16T22:28:27.707Z,5.47
2023-05-16T22:30:55.977Z,4.15
2023-05-16T22:33:24.408Z,4.03
2023-05-16T22:35:52.783Z,3.78
2023-05-16T22:38:21.056Z,3.75
2023-05-16T22:40:49.405Z,4.13
2023-05-16T22:43:17.877Z,3.38
2023-05-16T22:45:46.217Z,3.75
2023-05-16T22:48:14.723Z,4.07
2023-05-16T22:50:43.164Z,3.85
2023-05-16T22:53:11.380Z,3.85
2023-05-16T22:55:39.622Z,4.03
2023-05-16T22:58:07.853Z,4.20
2023-05-16T23:00:36.268Z,4.68
2023-05-16T23:03:04.729Z,3.80
2023-05-16T23:05:33.102Z,4.13
2023-05-16T23:08:01.418Z,4.05
2023-05-16T23:10:30.142Z,4.05
2023-05-16T23:12:58.485Z,4.43
2023-05-16T23:15:28.080Z,4.53
2023-05-16T23:17:56.654Z,4.28
2023-05-16T23:20:24.949Z,4.15
2023-05-16T23:22:53.259Z,3.97
2023-05-16T23:25:21.809Z,4.72
2023-05-16T23:27:50.807Z,4.13
2023-05-16T23:30:19.262Z,4.43
2023-05-16T23:32:47.591Z,4.50
2023-05-16T23:35:15.818Z,4.25
2023-05-16T23:37:44.139Z,4.72
2023-05-16T23:40:12.741Z,3.70
2023-05-16T23:42:41.257Z,4.43
2023-05-16T23:45:10.630Z,4.13
2023-05-16T23:47:39.034Z,4.28
2023-05-16T23:50:07.774Z,4.93
2023-05-16T23:52:36.017Z,4.10
2023-05-16T23:55:04.652Z,4.50
2023-05-16T23:57:32.888Z,4.47
